PWSweather.com
Personal Weather Stations
Station Observations
KMICHEBO10
Cordwood Point, Lake Huron, Cheboygan, MI 49721

Cordwood Point, Lake HuronCheboygan, MI 49721

Lat: 45.663372, Lon: -84.3327789

Elevation: 584

Station Type: Davis Vantage Pro2 Wireless

http://www.lakehuronweather.org

High Low Average
Temperature 38.0°F3.3°C 21.5°F-5.8°C 29.2°F-1.6°C
Dew Point 25.2°F-3.8°C 8.2°F-13.2°C 19.8°F-6.8°C
Winds 4.6 mph 7.4 kmh Calm Calm 1.0 mph WNW1.6 kmh WNW
Wind Gusts 8.1 mph13.0 kmh -- 3.0 mph4.8 kmh
Humidity 84% 34% 69%
Pressure 30.36 in1028.1 mb 30.26 in1024.7 mb -
Precipitation 0.00 in0.0 mm - -
Hour Temp Dew Point Humidity Winds Wind Gusts Pressure Precip Precip Rate Daily Precip Total
12:00 AM 27.1°F-2.7°C 18.2°F-7.7°C 69% 1.2 mph NE1.9 kmh NE 2.3 mph3.7 kmh 30.27 in1025.1 mb - 0.00 in0.0 mm 0.00 in0.0 mm
12:10 AM 26.9°F-2.8°C 19.1°F-7.2°C 72% 1.2 mph N1.9 kmh N 3.5 mph5.6 kmh 30.27 in1025.1 mb - 0.00 in0.0 mm 0.00 in0.0 mm
12:20 AM 26.9°F-2.8°C 18.7°F-7.4°C 71% 3.5 mph N5.6 kmh N 5.8 mph9.3 kmh 30.27 in1025.1 mb - 0.00 in0.0 mm 0.00 in0.0 mm
12:30 AM 27.0°F-2.8°C 18.2°F-7.7°C 69% 1.2 mph N1.9 kmh N 8.1 mph13.0 kmh 30.27 in1025.1 mb - 0.00 in0.0 mm 0.00 in0.0 mm
12:40 AM 26.9°F-2.8°C 17.7°F-7.9°C 68% 2.3 mph NNW3.7 kmh NNW 6.9 mph11.1 kmh 30.27 in1025.1 mb - 0.00 in0.0 mm 0.00 in0.0 mm
12:50 AM 26.7°F-2.9°C 17.6°F-8.0°C 68% 1.2 mph N1.9 kmh N 2.3 mph3.7 kmh 30.27 in1025.1 mb - 0.00 in0.0 mm 0.00 in0.0 mm
01:00 AM 26.5°F-3.1°C 17.7°F-7.9°C 69% 1.2 mph N1.9 kmh N 2.3 mph3.7 kmh 30.27 in1025.1 mb - 0.00 in0.0 mm 0.00 in0.0 mm
01:10 AM 26.1°F-3.3°C 18.0°F-7.8°C 71% Calm Calm 1.2 mph1.9 kmh 30.27 in1025.1 mb - 0.00 in0.0 mm 0.00 in0.0 mm
01:20 AM 25.5°F-3.6°C 18.7°F-7.4°C 75% Calm Calm 1.2 mph1.9 kmh 30.27 in1025.1 mb - 0.00 in0.0 mm 0.00 in0.0 mm
01:30 AM 24.9°F-3.9°C 17.8°F-7.9°C 74% Calm Calm 3.5 mph5.6 kmh 30.27 in1025.1 mb - 0.00 in0.0 mm 0.00 in0.0 mm
01:40 AM 24.8°F-4.0°C 18.0°F-7.8°C 75% Calm Calm 1.2 mph1.9 kmh 30.27 in1025.1 mb - 0.00 in0.0 mm 0.00 in0.0 mm
01:50 AM 24.4°F-4.2°C 17.9°F-7.8°C 76% 2.3 mph N3.7 kmh N 3.5 mph5.6 kmh 30.27 in1025.1 mb - 0.00 in0.0 mm 0.00 in0.0 mm
02:00 AM 24.3°F-4.3°C 18.1°F-7.7°C 77% 1.2 mph N1.9 kmh N 2.3 mph3.7 kmh 30.27 in1025.1 mb - 0.00 in0.0 mm 0.00 in0.0 mm
02:10 AM 24.9°F-3.9°C 19.3°F-7.1°C 79% 1.2 mph NW1.9 kmh NW 2.3 mph3.7 kmh 30.28 in1025.4 mb - 0.00 in0.0 mm 0.00 in0.0 mm
02:20 AM 25.3°F-3.7°C 19.4°F-7.0°C 78% 3.5 mph NNW5.6 kmh NNW 6.9 mph11.1 kmh 30.28 in1025.4 mb - 0.00 in0.0 mm 0.00 in0.0 mm
02:30 AM 25.6°F-3.6°C 20.0°F-6.7°C 79% 2.3 mph NNW3.7 kmh NNW 3.5 mph5.6 kmh 30.28 in1025.4 mb - 0.00 in0.0 mm 0.00 in0.0 mm
02:40 AM 25.8°F-3.4°C 20.2°F-6.6°C 79% 1.2 mph N1.9 kmh N 3.5 mph5.6 kmh 30.28 in1025.4 mb - 0.00 in0.0 mm 0.00 in0.0 mm
02:50 AM 25.8°F-3.4°C 20.2°F-6.6°C 79% 3.5 mph NNW5.6 kmh NNW 8.1 mph13.0 kmh 30.28 in1025.4 mb - 0.00 in0.0 mm 0.00 in0.0 mm
03:00 AM 25.8°F-3.4°C 20.5°F-6.4°C 80% 1.2 mph NNW1.9 kmh NNW 3.5 mph5.6 kmh 30.28 in1025.4 mb - 0.00 in0.0 mm 0.00 in0.0 mm
03:10 AM 25.9°F-3.4°C 20.9°F-6.2°C 81% 1.2 mph NNW1.9 kmh NNW 4.6 mph7.4 kmh 30.29 in1025.7 mb - 0.00 in0.0 mm 0.00 in0.0 mm
03:20 AM 26.0°F-3.3°C 21.3°F-5.9°C 82% 2.3 mph N3.7 kmh N 3.5 mph5.6 kmh 30.29 in1025.7 mb - 0.00 in0.0 mm 0.00 in0.0 mm
03:30 AM 26.2°F-3.2°C 21.4°F-5.9°C 82% 2.3 mph NW3.7 kmh NW 4.6 mph7.4 kmh 30.29 in1025.7 mb - 0.00 in0.0 mm 0.00 in0.0 mm
03:40 AM 26.3°F-3.2°C 21.3°F-5.9°C 81% 2.3 mph N3.7 kmh N 3.5 mph5.6 kmh 30.29 in1025.7 mb - 0.00 in0.0 mm 0.00 in0.0 mm
03:50 AM 26.3°F-3.2°C 21.3°F-5.9°C 81% 2.3 mph N3.7 kmh N 3.5 mph5.6 kmh 30.29 in1025.7 mb - 0.00 in0.0 mm 0.00 in0.0 mm
04:00 AM 26.2°F-3.2°C 20.6°F-6.3°C 79% 1.2 mph NNW1.9 kmh NNW 2.3 mph3.7 kmh 30.29 in1025.7 mb - 0.00 in0.0 mm 0.00 in0.0 mm
04:10 AM 26.2°F-3.2°C 20.6°F-6.3°C 79% 2.3 mph NNW3.7 kmh NNW 3.5 mph5.6 kmh 30.29 in1025.7 mb - 0.00 in0.0 mm 0.00 in0.0 mm
04:20 AM 26.2°F-3.2°C 20.2°F-6.6°C 78% 2.3 mph N3.7 kmh N 4.6 mph7.4 kmh 30.29 in1025.7 mb - 0.00 in0.0 mm 0.00 in0.0 mm
04:30 AM 26.2°F-3.2°C 20.3°F-6.5°C 78% 2.3 mph N3.7 kmh N 3.5 mph5.6 kmh 30.29 in1025.7 mb - 0.00 in0.0 mm 0.00 in0.0 mm
04:40 AM 26.2°F-3.2°C 20.6°F-6.3°C 79% 2.3 mph N3.7 kmh N 5.8 mph9.3 kmh 30.29 in1025.7 mb - 0.00 in0.0 mm 0.00 in0.0 mm
04:50 AM 26.2°F-3.2°C 20.0°F-6.7°C 77% 1.2 mph N1.9 kmh N 3.5 mph5.6 kmh 30.29 in1025.7 mb - 0.00 in0.0 mm 0.00 in0.0 mm
05:00 AM 26.1°F-3.3°C 20.2°F-6.6°C 78% 2.3 mph NNW3.7 kmh NNW 4.6 mph7.4 kmh 30.29 in1025.7 mb - 0.00 in0.0 mm 0.00 in0.0 mm
05:10 AM 26.1°F-3.3°C 19.6°F-6.9°C 76% 1.2 mph NNW1.9 kmh NNW 2.3 mph3.7 kmh 30.29 in1025.7 mb - 0.00 in0.0 mm 0.00 in0.0 mm
05:20 AM 26.0°F-3.3°C 19.5°F-6.9°C 76% 1.2 mph NNW1.9 kmh NNW 2.3 mph3.7 kmh 30.29 in1025.7 mb - 0.00 in0.0 mm 0.00 in0.0 mm
05:30 AM 25.8°F-3.4°C 19.0°F-7.2°C 75% 1.2 mph NNW1.9 kmh NNW 2.3 mph3.7 kmh 30.30 in1026.1 mb - 0.00 in0.0 mm 0.00 in0.0 mm
05:40 AM 25.7°F-3.5°C 18.2°F-7.7°C 73% 1.2 mph NW1.9 kmh NW 2.3 mph3.7 kmh 30.30 in1026.1 mb - 0.00 in0.0 mm 0.00 in0.0 mm
05:50 AM 25.4°F-3.7°C 18.2°F-7.7°C 74% 1.2 mph NW1.9 kmh NW 3.5 mph5.6 kmh 30.30 in1026.1 mb - 0.00 in0.0 mm 0.00 in0.0 mm
06:00 AM 24.9°F-3.9°C 18.1°F-7.7°C 75% 1.2 mph NW1.9 kmh NW 2.3 mph3.7 kmh 30.31 in1026.4 mb - 0.00 in0.0 mm 0.00 in0.0 mm
06:10 AM 24.2°F-4.3°C 17.4°F-8.1°C 75% 1.2 mph NW1.9 kmh NW 1.2 mph1.9 kmh 30.31 in1026.4 mb - 0.00 in0.0 mm 0.00 in0.0 mm
06:20 AM 23.6°F-4.7°C 16.8°F-8.4°C 75% 1.2 mph NW1.9 kmh NW 1.2 mph1.9 kmh 30.31 in1026.4 mb - 0.00 in0.0 mm 0.00 in0.0 mm
06:30 AM 23.4°F-4.8°C 16.6°F-8.6°C 75% 1.2 mph NW1.9 kmh NW 3.5 mph5.6 kmh 30.31 in1026.4 mb - 0.00 in0.0 mm 0.00 in0.0 mm
06:40 AM 23.5°F-4.7°C 16.1°F-8.8°C 73% 1.2 mph NW1.9 kmh NW 1.2 mph1.9 kmh 30.31 in1026.4 mb - 0.00 in0.0 mm 0.00 in0.0 mm
06:50 AM 23.9°F-4.5°C 15.5°F-9.2°C 70% Calm Calm 1.2 mph1.9 kmh 30.32 in1026.8 mb - 0.00 in0.0 mm 0.00 in0.0 mm
07:00 AM 23.7°F-4.6°C 16.0°F-8.9°C 72% 1.2 mph NNW1.9 kmh NNW 2.3 mph3.7 kmh 30.32 in1026.8 mb - 0.00 in0.0 mm 0.00 in0.0 mm
07:10 AM 23.5°F-4.7°C 15.8°F-9.0°C 72% 1.2 mph NNW1.9 kmh NNW 2.3 mph3.7 kmh 30.32 in1026.8 mb - 0.00 in0.0 mm 0.00 in0.0 mm
07:20 AM 23.3°F-4.8°C 15.6°F-9.1°C 72% 1.2 mph N1.9 kmh N 2.3 mph3.7 kmh 30.32 in1026.8 mb - 0.00 in0.0 mm 0.00 in0.0 mm
07:30 AM 22.9°F-5.1°C 15.2°F-9.3°C 72% 1.2 mph N1.9 kmh N 1.2 mph1.9 kmh 30.33 in1027.1 mb - 0.00 in0.0 mm 0.00 in0.0 mm
07:40 AM 22.6°F-5.2°C 15.2°F-9.3°C 73% 1.2 mph N1.9 kmh N 2.3 mph3.7 kmh 30.33 in1027.1 mb - 0.00 in0.0 mm 0.00 in0.0 mm
07:50 AM 22.3°F-5.4°C 15.6°F-9.1°C 75% Calm Calm 1.2 mph1.9 kmh 30.32 in1026.8 mb - 0.00 in0.0 mm 0.00 in0.0 mm
08:00 AM 22.0°F-5.6°C 15.0°F-9.4°C 74% Calm Calm -- 30.33 in1027.1 mb - 0.00 in0.0 mm 0.00 in0.0 mm
08:10 AM 21.7°F-5.7°C 15.0°F-9.4°C 75% Calm Calm 1.2 mph1.9 kmh 30.33 in1027.1 mb - 0.00 in0.0 mm 0.00 in0.0 mm
08:20 AM 21.5°F-5.8°C 14.8°F-9.6°C 75% Calm Calm 1.2 mph1.9 kmh 30.33 in1027.1 mb - 0.00 in0.0 mm 0.00 in0.0 mm
08:30 AM 21.6°F-5.8°C 15.8°F-9.0°C 78% Calm Calm 1.2 mph1.9 kmh 30.33 in1027.1 mb - 0.00 in0.0 mm 0.00 in0.0 mm
08:40 AM 21.8°F-5.7°C 16.3°F-8.7°C 79% 1.2 mph NW1.9 kmh NW 2.3 mph3.7 kmh 30.34 in1027.4 mb - 0.00 in0.0 mm 0.00 in0.0 mm
08:50 AM 22.5°F-5.3°C 18.1°F-7.7°C 83% 1.2 mph W1.9 kmh W 2.3 mph3.7 kmh 30.34 in1027.4 mb - 0.00 in0.0 mm 0.00 in0.0 mm
09:00 AM 23.4°F-4.8°C 19.3°F-7.1°C 84% Calm Calm -- 30.34 in1027.4 mb - 0.00 in0.0 mm 0.00 in0.0 mm
09:10 AM 24.6°F-4.1°C 19.9°F-6.7°C 82% 1.2 mph W1.9 kmh W 1.2 mph1.9 kmh 30.34 in1027.4 mb - 0.00 in0.0 mm 0.00 in0.0 mm
09:20 AM 25.6°F-3.6°C 20.3°F-6.5°C 80% Calm Calm 2.3 mph3.7 kmh 30.34 in1027.4 mb - 0.00 in0.0 mm 0.00 in0.0 mm
09:30 AM 26.0°F-3.3°C 20.4°F-6.4°C 79% 1.2 mph NW1.9 kmh NW 2.3 mph3.7 kmh 30.34 in1027.4 mb - 0.00 in0.0 mm 0.00 in0.0 mm
09:40 AM 26.4°F-3.1°C 20.8°F-6.2°C 79% Calm Calm 1.2 mph1.9 kmh 30.35 in1027.8 mb - 0.00 in0.0 mm 0.00 in0.0 mm
09:50 AM 26.7°F-2.9°C 20.8°F-6.2°C 78% Calm Calm 1.2 mph1.9 kmh 30.35 in1027.8 mb - 0.00 in0.0 mm 0.00 in0.0 mm
10:00 AM 26.7°F-2.9°C 20.5°F-6.4°C 77% Calm Calm 1.2 mph1.9 kmh 30.35 in1027.8 mb - 0.00 in0.0 mm 0.00 in0.0 mm
10:10 AM 26.7°F-2.9°C 20.8°F-6.2°C 78% 1.2 mph WSW1.9 kmh WSW 1.2 mph1.9 kmh 30.35 in1027.8 mb - 0.00 in0.0 mm 0.00 in0.0 mm
10:20 AM 26.9°F-2.8°C 21.0°F-6.1°C 78% 1.2 mph NW1.9 kmh NW 2.3 mph3.7 kmh 30.36 in1028.1 mb - 0.00 in0.0 mm 0.00 in0.0 mm
10:30 AM 27.6°F-2.4°C 21.0°F-6.1°C 76% 1.2 mph WNW1.9 kmh WNW 1.2 mph1.9 kmh 30.35 in1027.8 mb - 0.00 in0.0 mm 0.00 in0.0 mm
10:40 AM 28.4°F-2.0°C 21.5°F-5.8°C 75% 1.2 mph NNE1.9 kmh NNE 2.3 mph3.7 kmh 30.35 in1027.8 mb - 0.00 in0.0 mm 0.00 in0.0 mm
10:50 AM 29.3°F-1.5°C 21.1°F-6.1°C 71% 1.2 mph NW1.9 kmh NW 2.3 mph3.7 kmh 30.35 in1027.8 mb - 0.00 in0.0 mm 0.00 in0.0 mm
11:00 AM 30.2°F-1.0°C 21.3°F-5.9°C 69% 2.3 mph N3.7 kmh N 3.5 mph5.6 kmh 30.35 in1027.8 mb - 0.00 in0.0 mm 0.00 in0.0 mm
11:10 AM 31.1°F-0.5°C 20.7°F-6.3°C 65% 1.2 mph NNW1.9 kmh NNW 3.5 mph5.6 kmh 30.35 in1027.8 mb - 0.00 in0.0 mm 0.00 in0.0 mm
11:20 AM 31.2°F-0.4°C 20.5°F-6.4°C 64% 1.2 mph N1.9 kmh N 2.3 mph3.7 kmh 30.35 in1027.8 mb - 0.00 in0.0 mm 0.00 in0.0 mm
11:30 AM 31.5°F-0.3°C 18.4°F-7.6°C 58% 1.2 mph N1.9 kmh N 2.3 mph3.7 kmh 30.35 in1027.8 mb - 0.00 in0.0 mm 0.00 in0.0 mm
11:40 AM 32.2°F0.1°C 19.5°F-6.9°C 59% 1.2 mph N1.9 kmh N 1.2 mph1.9 kmh 30.35 in1027.8 mb - 0.00 in0.0 mm 0.00 in0.0 mm
11:50 AM 33.1°F0.6°C 19.1°F-7.2°C 56% 1.2 mph NNW1.9 kmh NNW 2.3 mph3.7 kmh 30.34 in1027.4 mb - 0.00 in0.0 mm 0.00 in0.0 mm
12:00 PM 33.7°F0.9°C 18.4°F-7.6°C 53% 1.2 mph N1.9 kmh N 3.5 mph5.6 kmh 30.34 in1027.4 mb - 0.00 in0.0 mm 0.00 in0.0 mm
12:10 PM 33.8°F1.0°C 16.6°F-8.6°C 49% 1.2 mph NNW1.9 kmh NNW 3.5 mph5.6 kmh 30.34 in1027.4 mb - 0.00 in0.0 mm 0.00 in0.0 mm
12:20 PM 33.9°F1.1°C 10.9°F-11.7°C 38% 1.2 mph W1.9 kmh W 2.3 mph3.7 kmh 30.34 in1027.4 mb - 0.00 in0.0 mm 0.00 in0.0 mm
12:30 PM 33.6°F0.9°C 8.2°F-13.2°C 34% 2.3 mph NW3.7 kmh NW 5.8 mph9.3 kmh 30.34 in1027.4 mb - 0.00 in0.0 mm 0.00 in0.0 mm
12:40 PM 33.4°F0.8°C 9.9°F-12.3°C 37% 1.2 mph WNW1.9 kmh WNW 2.3 mph3.7 kmh 30.34 in1027.4 mb - 0.00 in0.0 mm 0.00 in0.0 mm
12:50 PM 34.0°F1.1°C 13.3°F-10.4°C 42% 2.3 mph NW3.7 kmh NW 3.5 mph5.6 kmh 30.33 in1027.1 mb - 0.00 in0.0 mm 0.00 in0.0 mm
01:00 PM 34.8°F1.6°C 17.0°F-8.3°C 48% Calm Calm 3.5 mph5.6 kmh 30.33 in1027.1 mb - 0.00 in0.0 mm 0.00 in0.0 mm
01:10 PM 35.3°F1.8°C 13.9°F-10.1°C 41% 2.3 mph WSW3.7 kmh WSW 2.3 mph3.7 kmh 30.33 in1027.1 mb - 0.00 in0.0 mm 0.00 in0.0 mm
01:20 PM 35.8°F2.1°C 14.9°F-9.5°C 42% 1.2 mph WNW1.9 kmh WNW 2.3 mph3.7 kmh 30.33 in1027.1 mb - 0.00 in0.0 mm 0.00 in0.0 mm
01:30 PM 36.0°F2.2°C 16.2°F-8.8°C 44% 1.2 mph WNW1.9 kmh WNW 2.3 mph3.7 kmh 30.32 in1026.8 mb - 0.00 in0.0 mm 0.00 in0.0 mm
01:40 PM 36.0°F2.2°C 15.1°F-9.4°C 42% 1.2 mph N1.9 kmh N 3.5 mph5.6 kmh 30.32 in1026.8 mb - 0.00 in0.0 mm 0.00 in0.0 mm
01:50 PM 36.1°F2.3°C 18.3°F-7.6°C 48% 2.3 mph NW3.7 kmh NW 3.5 mph5.6 kmh 30.32 in1026.8 mb - 0.00 in0.0 mm 0.00 in0.0 mm
02:00 PM 36.1°F2.3°C 19.2°F-7.1°C 50% 1.2 mph N1.9 kmh N 3.5 mph5.6 kmh 30.32 in1026.8 mb - 0.00 in0.0 mm 0.00 in0.0 mm
02:10 PM 36.1°F2.3°C 20.6°F-6.3°C 53% 1.2 mph N1.9 kmh N 1.2 mph1.9 kmh 30.32 in1026.8 mb - 0.00 in0.0 mm 0.00 in0.0 mm
02:20 PM 36.2°F2.3°C 20.2°F-6.6°C 52% 1.2 mph NNW1.9 kmh NNW 2.3 mph3.7 kmh 30.31 in1026.4 mb - 0.00 in0.0 mm 0.00 in0.0 mm
02:30 PM 36.4°F2.4°C 19.0°F-7.2°C 49% 1.2 mph NW1.9 kmh NW 2.3 mph3.7 kmh 30.31 in1026.4 mb - 0.00 in0.0 mm 0.00 in0.0 mm
02:40 PM 36.6°F2.6°C 21.9°F-5.6°C 55% 1.2 mph NW1.9 kmh NW 1.2 mph1.9 kmh 30.30 in1026.1 mb - 0.00 in0.0 mm 0.00 in0.0 mm
02:50 PM 36.4°F2.4°C 20.9°F-6.2°C 53% 1.2 mph NW1.9 kmh NW 5.8 mph9.3 kmh 30.30 in1026.1 mb - 0.00 in0.0 mm 0.00 in0.0 mm
03:00 PM 36.5°F2.5°C 21.8°F-5.7°C 55% 1.2 mph NW1.9 kmh NW 2.3 mph3.7 kmh 30.30 in1026.1 mb - 0.00 in0.0 mm 0.00 in0.0 mm
03:10 PM 36.8°F2.7°C 19.9°F-6.7°C 50% 1.2 mph W1.9 kmh W 4.6 mph7.4 kmh 30.30 in1026.1 mb - 0.00 in0.0 mm 0.00 in0.0 mm
03:20 PM 37.1°F2.8°C 20.2°F-6.6°C 50% 1.2 mph WNW1.9 kmh WNW 3.5 mph5.6 kmh 30.29 in1025.7 mb - 0.00 in0.0 mm 0.00 in0.0 mm
03:30 PM 37.4°F3.0°C 22.3°F-5.4°C 54% 2.3 mph WNW3.7 kmh WNW 8.1 mph13.0 kmh 30.29 in1025.7 mb - 0.00 in0.0 mm 0.00 in0.0 mm
03:40 PM 37.7°F3.2°C 23.4°F-4.8°C 56% 1.2 mph WSW1.9 kmh WSW 2.3 mph3.7 kmh 30.28 in1025.4 mb - 0.00 in0.0 mm 0.00 in0.0 mm
03:50 PM 37.9°F3.3°C 22.7°F-5.2°C 54% 1.2 mph N1.9 kmh N 2.3 mph3.7 kmh 30.28 in1025.4 mb - 0.00 in0.0 mm 0.00 in0.0 mm
04:00 PM 38.0°F3.3°C 24.5°F-4.2°C 58% 1.2 mph WNW1.9 kmh WNW 2.3 mph3.7 kmh 30.28 in1025.4 mb - 0.00 in0.0 mm 0.00 in0.0 mm
04:10 PM 37.7°F3.2°C 23.0°F-5.0°C 55% 1.2 mph WNW1.9 kmh WNW 2.3 mph3.7 kmh 30.28 in1025.4 mb - 0.00 in0.0 mm 0.00 in0.0 mm
04:20 PM 37.2°F2.9°C 24.6°F-4.1°C 60% 1.2 mph NW1.9 kmh NW 2.3 mph3.7 kmh 30.28 in1025.4 mb - 0.00 in0.0 mm 0.00 in0.0 mm
04:30 PM 36.7°F2.6°C 24.9°F-3.9°C 62% 2.3 mph NW3.7 kmh NW 5.8 mph9.3 kmh 30.27 in1025.1 mb - 0.00 in0.0 mm 0.00 in0.0 mm
04:40 PM 36.3°F2.4°C 24.9°F-3.9°C 63% 1.2 mph W1.9 kmh W 2.3 mph3.7 kmh 30.27 in1025.1 mb - 0.00 in0.0 mm 0.00 in0.0 mm
04:50 PM 36.0°F2.2°C 23.9°F-4.5°C 61% 2.3 mph WNW3.7 kmh WNW 3.5 mph5.6 kmh 30.27 in1025.1 mb - 0.00 in0.0 mm 0.00 in0.0 mm
05:00 PM 35.7°F2.1°C 24.3°F-4.3°C 63% 2.3 mph W3.7 kmh W 3.5 mph5.6 kmh 30.27 in1025.1 mb - 0.00 in0.0 mm 0.00 in0.0 mm
05:10 PM 35.4°F1.9°C 24.5°F-4.2°C 64% 1.2 mph NW1.9 kmh NW 2.3 mph3.7 kmh 30.27 in1025.1 mb - 0.00 in0.0 mm 0.00 in0.0 mm
05:20 PM 35.0°F1.7°C 24.8°F-4.0°C 66% 1.2 mph NNW1.9 kmh NNW 4.6 mph7.4 kmh 30.27 in1025.1 mb - 0.00 in0.0 mm 0.00 in0.0 mm
05:30 PM 34.7°F1.5°C 25.2°F-3.8°C 68% 1.2 mph NW1.9 kmh NW 2.3 mph3.7 kmh 30.27 in1025.1 mb - 0.00 in0.0 mm 0.00 in0.0 mm
05:40 PM 34.3°F1.3°C 24.8°F-4.0°C 68% 1.2 mph WNW1.9 kmh WNW 3.5 mph5.6 kmh 30.27 in1025.1 mb - 0.00 in0.0 mm 0.00 in0.0 mm
05:50 PM 34.0°F1.1°C 24.6°F-4.1°C 68% 1.2 mph WNW1.9 kmh WNW 1.2 mph1.9 kmh 30.27 in1025.1 mb - 0.00 in0.0 mm 0.00 in0.0 mm
06:00 PM 33.7°F0.9°C 23.9°F-4.5°C 67% 1.2 mph WNW1.9 kmh WNW 2.3 mph3.7 kmh 30.26 in1024.7 mb - 0.00 in0.0 mm 0.00 in0.0 mm
06:10 PM 33.3°F0.7°C 24.6°F-4.1°C 70% 1.2 mph W1.9 kmh W 2.3 mph3.7 kmh 30.27 in1025.1 mb - 0.00 in0.0 mm 0.00 in0.0 mm
06:20 PM 33.0°F0.6°C 24.3°F-4.3°C 70% 1.2 mph WNW1.9 kmh WNW 3.5 mph5.6 kmh 30.27 in1025.1 mb - 0.00 in0.0 mm 0.00 in0.0 mm
06:30 PM 32.7°F0.4°C 24.0°F-4.4°C 70% 1.2 mph SW1.9 kmh SW 3.5 mph5.6 kmh 30.27 in1025.1 mb - 0.00 in0.0 mm 0.00 in0.0 mm
06:40 PM 32.4°F0.2°C 24.0°F-4.4°C 71% 1.2 mph N1.9 kmh N 3.5 mph5.6 kmh 30.27 in1025.1 mb - 0.00 in0.0 mm 0.00 in0.0 mm
06:50 PM 32.2°F0.1°C 23.8°F-4.6°C 71% 1.2 mph NW1.9 kmh NW 2.3 mph3.7 kmh 30.27 in1025.1 mb - 0.00 in0.0 mm 0.00 in0.0 mm
07:00 PM 31.9°F-0.1°C 23.9°F-4.5°C 72% 1.2 mph WNW1.9 kmh WNW 3.5 mph5.6 kmh 30.27 in1025.1 mb - 0.00 in0.0 mm 0.00 in0.0 mm
07:10 PM 31.7°F-0.2°C 24.0°F-4.4°C 73% 1.2 mph W1.9 kmh W 1.2 mph1.9 kmh 30.28 in1025.4 mb - 0.00 in0.0 mm 0.00 in0.0 mm
07:20 PM 31.5°F-0.3°C 24.2°F-4.3°C 74% 1.2 mph WSW1.9 kmh WSW 2.3 mph3.7 kmh 30.28 in1025.4 mb - 0.00 in0.0 mm 0.00 in0.0 mm
07:30 PM 31.2°F-0.4°C 24.2°F-4.3°C 75% Calm Calm 2.3 mph3.7 kmh 30.28 in1025.4 mb - 0.00 in0.0 mm 0.00 in0.0 mm
07:40 PM 31.1°F-0.5°C 23.4°F-4.8°C 73% Calm Calm 1.2 mph1.9 kmh 30.28 in1025.4 mb - 0.00 in0.0 mm 0.00 in0.0 mm
07:50 PM 30.9°F-0.6°C 23.9°F-4.5°C 75% Calm Calm 1.2 mph1.9 kmh 30.28 in1025.4 mb - 0.00 in0.0 mm 0.00 in0.0 mm
08:00 PM 30.6°F-0.8°C 24.2°F-4.3°C 77% Calm Calm 1.2 mph1.9 kmh 30.29 in1025.7 mb - 0.00 in0.0 mm 0.00 in0.0 mm
08:10 PM 30.4°F-0.9°C 24.0°F-4.4°C 77% Calm Calm 1.2 mph1.9 kmh 30.29 in1025.7 mb - 0.00 in0.0 mm 0.00 in0.0 mm
08:20 PM 30.1°F-1.1°C 23.8°F-4.6°C 77% Calm Calm 1.2 mph1.9 kmh 30.29 in1025.7 mb - 0.00 in0.0 mm 0.00 in0.0 mm
08:30 PM 29.8°F-1.2°C 23.8°F-4.6°C 78% Calm Calm 1.2 mph1.9 kmh 30.29 in1025.7 mb - 0.00 in0.0 mm 0.00 in0.0 mm
08:40 PM 29.6°F-1.3°C 23.9°F-4.5°C 79% 1.2 mph SW1.9 kmh SW 1.2 mph1.9 kmh 30.30 in1026.1 mb - 0.00 in0.0 mm 0.00 in0.0 mm
08:50 PM 29.3°F-1.5°C 23.3°F-4.8°C 78% Calm Calm 1.2 mph1.9 kmh 30.30 in1026.1 mb - 0.00 in0.0 mm 0.00 in0.0 mm
09:00 PM 29.2°F-1.6°C 21.6°F-5.8°C 73% 1.2 mph N1.9 kmh N 2.3 mph3.7 kmh 30.31 in1026.4 mb - 0.00 in0.0 mm 0.00 in0.0 mm
09:10 PM 29.4°F-1.4°C 18.0°F-7.8°C 62% 4.6 mph N7.4 kmh N 8.1 mph13.0 kmh 30.31 in1026.4 mb - 0.00 in0.0 mm 0.00 in0.0 mm
09:20 PM 29.8°F-1.2°C 17.2°F-8.2°C 59% 4.6 mph NNW7.4 kmh NNW 5.8 mph9.3 kmh 30.31 in1026.4 mb - 0.00 in0.0 mm 0.00 in0.0 mm
09:30 PM 29.9°F-1.2°C 18.5°F-7.5°C 62% 3.5 mph N5.6 kmh N 4.6 mph7.4 kmh 30.32 in1026.8 mb - 0.00 in0.0 mm 0.00 in0.0 mm
09:40 PM 29.7°F-1.3°C 17.9°F-7.8°C 61% 2.3 mph N3.7 kmh N 3.5 mph5.6 kmh 30.32 in1026.8 mb - 0.00 in0.0 mm 0.00 in0.0 mm
09:50 PM 29.5°F-1.4°C 17.7°F-7.9°C 61% 1.2 mph NNW1.9 kmh NNW 2.3 mph3.7 kmh 30.33 in1027.1 mb - 0.00 in0.0 mm 0.00 in0.0 mm
10:00 PM 29.1°F-1.6°C 18.4°F-7.6°C 64% 1.2 mph NNW1.9 kmh NNW 2.3 mph3.7 kmh 30.33 in1027.1 mb - 0.00 in0.0 mm 0.00 in0.0 mm
10:10 PM 28.8°F-1.8°C 18.5°F-7.5°C 65% Calm Calm 1.2 mph1.9 kmh 30.34 in1027.4 mb - 0.00 in0.0 mm 0.00 in0.0 mm
10:20 PM 28.3°F-2.1°C 18.8°F-7.3°C 67% 1.2 mph NW1.9 kmh NW 1.2 mph1.9 kmh 30.34 in1027.4 mb - 0.00 in0.0 mm 0.00 in0.0 mm
10:30 PM 28.0°F-2.2°C 18.8°F-7.3°C 68% Calm Calm 1.2 mph1.9 kmh 30.34 in1027.4 mb - 0.00 in0.0 mm 0.00 in0.0 mm
10:40 PM 27.6°F-2.4°C 19.4°F-7.0°C 71% Calm Calm -- 30.34 in1027.4 mb - 0.00 in0.0 mm 0.00 in0.0 mm
10:50 PM 27.0°F-2.8°C 19.5°F-6.9°C 73% Calm Calm 1.2 mph1.9 kmh 30.34 in1027.4 mb - 0.00 in0.0 mm 0.00 in0.0 mm
11:00 PM 26.5°F-3.1°C 19.6°F-6.9°C 75% Calm Calm 1.2 mph1.9 kmh 30.34 in1027.4 mb - 0.00 in0.0 mm 0.00 in0.0 mm
11:10 PM 26.1°F-3.3°C 18.9°F-7.3°C 74% Calm Calm 1.2 mph1.9 kmh 30.34 in1027.4 mb - 0.00 in0.0 mm 0.00 in0.0 mm
11:20 PM 25.7°F-3.5°C 18.9°F-7.3°C 75% Calm Calm 1.2 mph1.9 kmh 30.34 in1027.4 mb - 0.00 in0.0 mm 0.00 in0.0 mm
11:30 PM 25.6°F-3.6°C 19.1°F-7.2°C 76% Calm Calm -- 30.35 in1027.8 mb - 0.00 in0.0 mm 0.00 in0.0 mm
11:40 PM 25.3°F-3.7°C 18.8°F-7.3°C 76% Calm Calm 1.2 mph1.9 kmh 30.35 in1027.8 mb - 0.00 in0.0 mm 0.00 in0.0 mm
11:50 PM 25.4°F-3.7°C 18.3°F-7.6°C 74% Calm Calm 1.2 mph1.9 kmh 30.35 in1027.8 mb - 0.00 in0.0 mm 0.00 in0.0 mm